Esplugues de Llobregat, Spain
Current Conditions -  °F | °C
As of 4:30 PM on Saturday 22 Nov 2014 (Local Time) from LEBL Reporting Station
Few Clouds Few Clouds  
Wind Chill: 68°   Ceiling: Unl
Heat Index: 68°   Visibility: 6mi
Dew Point: 63°   Wind: 3mph
Humidity: 83%   Direction: 110°ESE
Pressure: 30.03"   Gusts: NA
Location:  41.38°N, 2.09°E
Report Text: LEBL 221530Z 11003KT 070V140 9000 FEW015 20/17 Q1017 NOSIG
Loading
Personal Weather Stations






























Interactive Weather Map New forecast layout! Learn more

10-Day Weather Forecast

Advertisements
Track Severe Weather on mobile